Flugplatz Schweighofen

Für EDRO sind keine METAR/TAF Berichte vorhanden.
Es werden die Flugwettermeldungen vom Flugplatz Karlsruhe Baden-Baden in 28 km Entfernung angezeigt.

Bericht für EDSB

vom 28.10. um 08:20 UTC

Wind 12 kt aus 200°

Sichtweite 10 km oder mehr

schwacher Regen

gering bewölkt in 1800 ft

aufgebrochene Bewölkung in 2900 ft

Temperatur 12.0°C

Taupunkt 10.0°C

Luftfeuchtigkeit 88%

Luftdruck 1013 hPa

EDSB 280820Z 20012KT 9999 -RA FEW018 BKN029 12/10 Q1013

Prognose für EDSB

vom 28.10. um 05:00 UTC

Zwischen 06:00 UTC und 06:00 UTC

Wind 10 kt aus 210°

Sichtweite 10 km oder mehr

gering bewölkt in 1500 ft

aufgebrochene Bewölkung in 2500 ft


Zwischen 06:00 UTC und 10:00 UTC zeitweise mit einer Wahrscheinlichkeit von 30%

Wind 15 kt aus 210° in Böen 25 kt

Regen


Zwischen 10:00 UTC und 16:00 UTC zeitweise

Wind 15 kt aus 210° in Böen 25 kt


Zwischen 22:00 UTC und 06:00 UTC zeitweise

Wind 15 kt aus 210° in Böen 25 kt

Sichtweite 4000 m

Regenschauer

aufgebrochene Bewölkung in 1400 ft

aufgebrochene Bewölkung in 2000 ft

TAF EDSB 280500Z 2806/2906 21010KT 9999 FEW015 BKN025 PROB30 TEMPO 2806/2810 21015G25KT RA TEMPO 2810/2816 21015G25KT TEMPO 2822/2906 21015G25KT 4000 SHRA BKN014 BKN020CB
Impressum